sensor_id;sensor_type;location;lat;lon;timestamp;P1;durP1;ratioP1;P2;durP2;ratioP2
5795;SDS011;2924;51.458;7.046;2022-08-19T00:01:51;12.63;;;10.50;;
5795;SDS011;2924;51.458;7.046;2022-08-19T00:04:19;10.47;;;9.57;;
5795;SDS011;2924;51.458;7.046;2022-08-19T00:06:53;14.07;;;11.70;;
5795;SDS011;2924;51.458;7.046;2022-08-19T00:09:20;13.07;;;11.77;;
5795;SDS011;2924;51.458;7.046;2022-08-19T00:11:46;13.80;;;12.30;;
5795;SDS011;2924;51.458;7.046;2022-08-19T00:14:13;15.13;;;12.00;;
5795;SDS011;2924;51.458;7.046;2022-08-19T00:16:40;19.60;;;11.93;;
5795;SDS011;2924;51.458;7.046;2022-08-19T00:19:08;13.17;;;11.43;;
5795;SDS011;2924;51.458;7.046;2022-08-19T00:21:34;14.17;;;12.30;;
5795;SDS011;2924;51.458;7.046;2022-08-19T00:24:04;18.50;;;11.30;;
5795;SDS011;2924;51.458;7.046;2022-08-19T00:26:31;13.87;;;12.30;;
5795;SDS011;2924;51.458;7.046;2022-08-19T00:28:57;21.93;;;12.33;;
5795;SDS011;2924;51.458;7.046;2022-08-19T00:31:22;20.30;;;14.00;;
5795;SDS011;2924;51.458;7.046;2022-08-19T00:33:50;17.77;;;12.90;;
5795;SDS011;2924;51.458;7.046;2022-08-19T00:36:15;13.37;;;12.00;;
5795;SDS011;2924;51.458;7.046;2022-08-19T00:38:41;17.20;;;12.90;;
5795;SDS011;2924;51.458;7.046;2022-08-19T00:41:08;19.33;;;11.90;;
5795;SDS011;2924;51.458;7.046;2022-08-19T00:43:35;16.00;;;11.20;;
5795;SDS011;2924;51.458;7.046;2022-08-19T00:46:01;17.63;;;11.40;;
5795;SDS011;2924;51.458;7.046;2022-08-19T00:48:29;18.90;;;11.73;;
5795;SDS011;2924;51.458;7.046;2022-08-19T00:50:56;14.20;;;11.60;;
5795;SDS011;2924;51.458;7.046;2022-08-19T00:53:24;13.10;;;10.73;;
5795;SDS011;2924;51.458;7.046;2022-08-19T00:55:53;15.53;;;12.87;;
5795;SDS011;2924;51.458;7.046;2022-08-19T00:58:22;13.53;;;12.10;;
5795;SDS011;2924;51.458;7.046;2022-08-19T01:00:52;15.87;;;12.53;;
5795;SDS011;2924;51.458;7.046;2022-08-19T01:03:18;16.00;;;12.40;;
5795;SDS011;2924;51.458;7.046;2022-08-19T01:05:45;14.07;;;12.33;;
5795;SDS011;2924;51.458;7.046;2022-08-19T01:08:14;18.20;;;13.63;;
5795;SDS011;2924;51.458;7.046;2022-08-19T01:10:51;13.60;;;12.20;;
5795;SDS011;2924;51.458;7.046;2022-08-19T01:13:23;16.87;;;14.07;;
5795;SDS011;2924;51.458;7.046;2022-08-19T01:16:11;22.60;;;14.83;;
5795;SDS011;2924;51.458;7.046;2022-08-19T01:18:39;18.00;;;14.10;;
5795;SDS011;2924;51.458;7.046;2022-08-19T01:21:24;16.07;;;12.97;;
5795;SDS011;2924;51.458;7.046;2022-08-19T01:23:58;16.43;;;13.83;;
5795;SDS011;2924;51.458;7.046;2022-08-19T01:26:24;19.60;;;14.97;;
5795;SDS011;2924;51.458;7.046;2022-08-19T01:28:52;18.27;;;14.20;;
5795;SDS011;2924;51.458;7.046;2022-08-19T01:31:21;18.53;;;15.90;;
5795;SDS011;2924;51.458;7.046;2022-08-19T01:33:49;18.03;;;15.00;;
5795;SDS011;2924;51.458;7.046;2022-08-19T01:36:24;31.07;;;15.50;;
5795;SDS011;2924;51.458;7.046;2022-08-19T01:38:51;18.17;;;15.23;;
5795;SDS011;2924;51.458;7.046;2022-08-19T01:41:18;17.83;;;15.80;;
5795;SDS011;2924;51.458;7.046;2022-08-19T01:43:44;19.10;;;15.67;;
5795;SDS011;2924;51.458;7.046;2022-08-19T01:46:10;17.60;;;14.90;;
5795;SDS011;2924;51.458;7.046;2022-08-19T01:48:37;19.33;;;15.30;;
5795;SDS011;2924;51.458;7.046;2022-08-19T01:51:06;23.50;;;17.20;;
5795;SDS011;2924;51.458;7.046;2022-08-19T01:53:32;18.33;;;15.43;;
5795;SDS011;2924;51.458;7.046;2022-08-19T01:55:58;18.33;;;16.43;;
5795;SDS011;2924;51.458;7.046;2022-08-19T01:58:27;19.83;;;16.50;;
5795;SDS011;2924;51.458;7.046;2022-08-19T02:01:01;21.43;;;17.07;;
5795;SDS011;2924;51.458;7.046;2022-08-19T02:03:28;22.73;;;17.27;;
5795;SDS011;2924;51.458;7.046;2022-08-19T02:05:55;23.13;;;18.10;;
5795;SDS011;2924;51.458;7.046;2022-08-19T02:08:28;21.87;;;17.07;;
5795;SDS011;2924;51.458;7.046;2022-08-19T02:10:55;19.33;;;17.40;;
5795;SDS011;2924;51.458;7.046;2022-08-19T02:13:21;21.70;;;17.90;;
5795;SDS011;2924;51.458;7.046;2022-08-19T02:15:47;22.90;;;18.20;;
5795;SDS011;2924;51.458;7.046;2022-08-19T02:18:12;28.43;;;19.43;;
5795;SDS011;2924;51.458;7.046;2022-08-19T02:20:39;20.30;;;17.93;;
5795;SDS011;2924;51.458;7.046;2022-08-19T02:23:06;23.80;;;16.67;;
5795;SDS011;2924;51.458;7.046;2022-08-19T02:25:32;21.83;;;17.87;;
5795;SDS011;2924;51.458;7.046;2022-08-19T02:27:58;20.20;;;18.00;;
5795;SDS011;2924;51.458;7.046;2022-08-19T02:30:24;21.63;;;18.40;;
5795;SDS011;2924;51.458;7.046;2022-08-19T02:32:50;28.53;;;18.30;;
5795;SDS011;2924;51.458;7.046;2022-08-19T02:35:17;20.53;;;15.23;;
5795;SDS011;2924;51.458;7.046;2022-08-19T02:37:43;17.47;;;15.33;;
5795;SDS011;2924;51.458;7.046;2022-08-19T02:40:28;17.90;;;15.63;;
5795;SDS011;2924;51.458;7.046;2022-08-19T02:42:57;19.17;;;16.47;;
5795;SDS011;2924;51.458;7.046;2022-08-19T02:45:22;18.90;;;16.90;;
5795;SDS011;2924;51.458;7.046;2022-08-19T02:47:48;18.53;;;16.50;;
5795;SDS011;2924;51.458;7.046;2022-08-19T02:50:14;23.67;;;20.30;;
5795;SDS011;2924;51.458;7.046;2022-08-19T02:52:40;31.37;;;20.93;;
5795;SDS011;2924;51.458;7.046;2022-08-19T02:55:05;29.00;;;19.70;;
5795;SDS011;2924;51.458;7.046;2022-08-19T02:57:31;29.40;;;20.60;;
5795;SDS011;2924;51.458;7.046;2022-08-19T02:59:58;28.70;;;20.77;;
5795;SDS011;2924;51.458;7.046;2022-08-19T03:02:23;25.73;;;21.20;;
5795;SDS011;2924;51.458;7.046;2022-08-19T03:04:49;24.80;;;20.20;;
5795;SDS011;2924;51.458;7.046;2022-08-19T03:07:16;24.80;;;20.43;;
5795;SDS011;2924;51.458;7.046;2022-08-19T03:09:43;28.37;;;21.30;;
5795;SDS011;2924;51.458;7.046;2022-08-19T03:12:09;26.50;;;20.20;;
5795;SDS011;2924;51.458;7.046;2022-08-19T03:14:36;22.00;;;17.37;;
5795;SDS011;2924;51.458;7.046;2022-08-19T03:17:02;23.57;;;20.93;;
5795;SDS011;2924;51.458;7.046;2022-08-19T03:19:29;25.00;;;21.00;;
5795;SDS011;2924;51.458;7.046;2022-08-19T03:21:56;32.03;;;22.27;;
5795;SDS011;2924;51.458;7.046;2022-08-19T03:24:22;30.80;;;24.93;;
5795;SDS011;2924;51.458;7.046;2022-08-19T03:26:50;34.10;;;24.03;;
5795;SDS011;2924;51.458;7.046;2022-08-19T03:29:20;29.80;;;22.77;;
5795;SDS011;2924;51.458;7.046;2022-08-19T03:31:45;26.63;;;20.90;;
5795;SDS011;2924;51.458;7.046;2022-08-19T03:34:12;21.90;;;19.50;;
5795;SDS011;2924;51.458;7.046;2022-08-19T03:36:40;25.83;;;19.27;;
5795;SDS011;2924;51.458;7.046;2022-08-19T03:39:06;23.20;;;19.30;;
5795;SDS011;2924;51.458;7.046;2022-08-19T03:41:36;24.70;;;20.40;;
5795;SDS011;2924;51.458;7.046;2022-08-19T03:44:03;22.83;;;18.13;;
5795;SDS011;2924;51.458;7.046;2022-08-19T03:46:31;28.57;;;19.13;;
5795;SDS011;2924;51.458;7.046;2022-08-19T03:48:59;24.90;;;20.40;;
5795;SDS011;2924;51.458;7.046;2022-08-19T03:51:33;26.60;;;20.80;;
5795;SDS011;2924;51.458;7.046;2022-08-19T03:54:02;27.20;;;21.77;;
5795;SDS011;2924;51.458;7.046;2022-08-19T03:56:30;31.83;;;24.37;;
5795;SDS011;2924;51.458;7.046;2022-08-19T03:58:58;29.07;;;23.90;;
5795;SDS011;2924;51.458;7.046;2022-08-19T04:01:25;29.13;;;22.73;;
5795;SDS011;2924;51.458;7.046;2022-08-19T04:03:52;30.00;;;23.23;;
5795;SDS011;2924;51.458;7.046;2022-08-19T04:06:22;24.77;;;20.37;;
5795;SDS011;2924;51.458;7.046;2022-08-19T04:08:53;25.43;;;19.37;;
5795;SDS011;2924;51.458;7.046;2022-08-19T04:11:22;21.30;;;18.87;;
5795;SDS011;2924;51.458;7.046;2022-08-19T04:13:50;22.90;;;18.57;;
5795;SDS011;2924;51.458;7.046;2022-08-19T04:16:18;22.47;;;17.07;;
5795;SDS011;2924;51.458;7.046;2022-08-19T04:18:45;27.93;;;17.20;;
5795;SDS011;2924;51.458;7.046;2022-08-19T04:21:18;18.53;;;16.40;;
5795;SDS011;2924;51.458;7.046;2022-08-19T04:23:49;22.37;;;17.40;;
5795;SDS011;2924;51.458;7.046;2022-08-19T04:26:16;18.83;;;16.10;;
5795;SDS011;2924;51.458;7.046;2022-08-19T04:28:44;22.37;;;18.40;;
5795;SDS011;2924;51.458;7.046;2022-08-19T04:31:14;25.73;;;18.80;;
5795;SDS011;2924;51.458;7.046;2022-08-19T04:33:42;25.20;;;17.70;;
5795;SDS011;2924;51.458;7.046;2022-08-19T04:36:08;29.13;;;21.40;;
5795;SDS011;2924;51.458;7.046;2022-08-19T04:38:45;27.20;;;21.37;;
5795;SDS011;2924;51.458;7.046;2022-08-19T04:41:12;35.73;;;23.10;;
5795;SDS011;2924;51.458;7.046;2022-08-19T04:43:57;27.37;;;21.80;;
5795;SDS011;2924;51.458;7.046;2022-08-19T04:46:23;29.30;;;22.20;;
5795;SDS011;2924;51.458;7.046;2022-08-19T04:48:48;30.33;;;21.97;;
5795;SDS011;2924;51.458;7.046;2022-08-19T04:51:14;34.20;;;23.17;;
5795;SDS011;2924;51.458;7.046;2022-08-19T04:53:40;23.33;;;19.80;;
5795;SDS011;2924;51.458;7.046;2022-08-19T04:56:13;24.60;;;17.73;;
5795;SDS011;2924;51.458;7.046;2022-08-19T04:58:42;18.57;;;16.40;;
5795;SDS011;2924;51.458;7.046;2022-08-19T05:01:13;22.40;;;17.23;;
5795;SDS011;2924;51.458;7.046;2022-08-19T05:03:42;22.13;;;17.37;;
5795;SDS011;2924;51.458;7.046;2022-08-19T05:06:09;21.20;;;18.40;;
5795;SDS011;2924;51.458;7.046;2022-08-19T05:08:37;25.83;;;19.30;;
5795;SDS011;2924;51.458;7.046;2022-08-19T05:11:11;22.00;;;17.90;;
5795;SDS011;2924;51.458;7.046;2022-08-19T05:13:45;22.23;;;19.83;;
5795;SDS011;2924;51.458;7.046;2022-08-19T05:16:13;27.97;;;20.33;;
5795;SDS011;2924;51.458;7.046;2022-08-19T05:18:40;26.93;;;20.17;;
5795;SDS011;2924;51.458;7.046;2022-08-19T05:21:24;21.67;;;18.40;;
5795;SDS011;2924;51.458;7.046;2022-08-19T05:24:09;30.13;;;20.50;;
5795;SDS011;2924;51.458;7.046;2022-08-19T05:26:36;21.70;;;18.30;;
5795;SDS011;2924;51.458;7.046;2022-08-19T05:29:03;22.03;;;19.50;;
5795;SDS011;2924;51.458;7.046;2022-08-19T05:31:29;28.47;;;22.57;;
5795;SDS011;2924;51.458;7.046;2022-08-19T05:33:56;33.23;;;24.47;;
5795;SDS011;2924;51.458;7.046;2022-08-19T05:36:23;28.60;;;22.27;;
5795;SDS011;2924;51.458;7.046;2022-08-19T05:38:53;29.40;;;23.27;;
5795;SDS011;2924;51.458;7.046;2022-08-19T05:41:20;32.50;;;24.23;;
5795;SDS011;2924;51.458;7.046;2022-08-19T05:43:58;32.53;;;25.53;;
5795;SDS011;2924;51.458;7.046;2022-08-19T05:46:27;30.10;;;22.33;;
5795;SDS011;2924;51.458;7.046;2022-08-19T05:48:53;28.20;;;21.07;;
5795;SDS011;2924;51.458;7.046;2022-08-19T05:51:22;28.50;;;20.47;;
5795;SDS011;2924;51.458;7.046;2022-08-19T05:53:49;33.83;;;21.63;;
5795;SDS011;2924;51.458;7.046;2022-08-19T05:56:15;28.03;;;21.40;;
5795;SDS011;2924;51.458;7.046;2022-08-19T05:58:43;31.90;;;20.77;;
5795;SDS011;2924;51.458;7.046;2022-08-19T06:01:11;38.10;;;24.13;;
5795;SDS011;2924;51.458;7.046;2022-08-19T06:03:39;30.73;;;20.00;;
5795;SDS011;2924;51.458;7.046;2022-08-19T06:06:06;30.23;;;20.83;;
5795;SDS011;2924;51.458;7.046;2022-08-19T06:08:33;33.77;;;22.83;;
5795;SDS011;2924;51.458;7.046;2022-08-19T06:13:38;25.43;;;22.30;;
5795;SDS011;2924;51.458;7.046;2022-08-19T06:16:04;26.70;;;21.47;;
5795;SDS011;2924;51.458;7.046;2022-08-19T06:18:30;27.73;;;20.50;;
5795;SDS011;2924;51.458;7.046;2022-08-19T06:20:55;22.07;;;18.90;;
5795;SDS011;2924;51.458;7.046;2022-08-19T06:23:21;27.70;;;19.50;;
5795;SDS011;2924;51.458;7.046;2022-08-19T06:25:47;31.43;;;20.13;;
5795;SDS011;2924;51.458;7.046;2022-08-19T06:28:13;36.73;;;20.43;;
5795;SDS011;2924;51.458;7.046;2022-08-19T06:30:38;22.17;;;17.60;;
5795;SDS011;2924;51.458;7.046;2022-08-19T06:33:04;33.60;;;21.20;;
5795;SDS011;2924;51.458;7.046;2022-08-19T06:35:29;31.93;;;21.50;;
5795;SDS011;2924;51.458;7.046;2022-08-19T06:37:55;29.30;;;24.63;;
5795;SDS011;2924;51.458;7.046;2022-08-19T06:40:21;28.97;;;22.00;;
5795;SDS011;2924;51.458;7.046;2022-08-19T06:42:47;29.37;;;22.90;;
5795;SDS011;2924;51.458;7.046;2022-08-19T06:45:13;29.70;;;23.73;;
5795;SDS011;2924;51.458;7.046;2022-08-19T06:47:39;33.47;;;24.93;;
5795;SDS011;2924;51.458;7.046;2022-08-19T06:50:08;33.30;;;24.80;;
5795;SDS011;2924;51.458;7.046;2022-08-19T06:52:34;31.80;;;24.87;;
5795;SDS011;2924;51.458;7.046;2022-08-19T06:55:01;28.40;;;21.60;;
5795;SDS011;2924;51.458;7.046;2022-08-19T06:57:27;31.77;;;24.33;;
5795;SDS011;2924;51.458;7.046;2022-08-19T06:59:57;33.07;;;24.53;;
5795;SDS011;2924;51.458;7.046;2022-08-19T07:02:24;34.00;;;27.50;;
5795;SDS011;2924;51.458;7.046;2022-08-19T07:04:51;30.00;;;23.17;;
5795;SDS011;2924;51.458;7.046;2022-08-19T07:07:17;36.63;;;27.43;;
5795;SDS011;2924;51.458;7.046;2022-08-19T07:09:45;27.87;;;23.70;;
5795;SDS011;2924;51.458;7.046;2022-08-19T07:12:12;41.73;;;25.87;;
5795;SDS011;2924;51.458;7.046;2022-08-19T07:14:41;31.27;;;24.40;;
5795;SDS011;2924;51.458;7.046;2022-08-19T07:17:08;29.43;;;24.50;;
5795;SDS011;2924;51.458;7.046;2022-08-19T07:19:36;32.97;;;24.30;;
5795;SDS011;2924;51.458;7.046;2022-08-19T07:22:03;30.10;;;21.90;;
5795;SDS011;2924;51.458;7.046;2022-08-19T07:24:32;29.93;;;21.17;;
5795;SDS011;2924;51.458;7.046;2022-08-19T07:26:59;34.23;;;24.60;;
5795;SDS011;2924;51.458;7.046;2022-08-19T07:29:27;29.07;;;24.70;;
5795;SDS011;2924;51.458;7.046;2022-08-19T07:31:55;28.30;;;22.80;;
5795;SDS011;2924;51.458;7.046;2022-08-19T07:34:23;30.80;;;23.90;;
5795;SDS011;2924;51.458;7.046;2022-08-19T07:36:50;27.67;;;21.00;;
5795;SDS011;2924;51.458;7.046;2022-08-19T07:39:18;29.83;;;22.13;;
5795;SDS011;2924;51.458;7.046;2022-08-19T07:41:46;33.10;;;24.90;;
5795;SDS011;2924;51.458;7.046;2022-08-19T07:44:13;43.27;;;26.13;;
5795;SDS011;2924;51.458;7.046;2022-08-19T07:46:42;36.70;;;26.80;;
5795;SDS011;2924;51.458;7.046;2022-08-19T07:49:11;33.03;;;25.63;;
5795;SDS011;2924;51.458;7.046;2022-08-19T07:51:42;34.20;;;25.20;;
5795;SDS011;2924;51.458;7.046;2022-08-19T07:54:09;36.37;;;27.33;;
5795;SDS011;2924;51.458;7.046;2022-08-19T07:56:36;33.30;;;28.70;;
5795;SDS011;2924;51.458;7.046;2022-08-19T07:59:02;47.70;;;28.80;;
5795;SDS011;2924;51.458;7.046;2022-08-19T08:01:28;38.87;;;30.23;;
5795;SDS011;2924;51.458;7.046;2022-08-19T08:03:55;31.27;;;25.60;;
5795;SDS011;2924;51.458;7.046;2022-08-19T08:06:40;33.80;;;26.30;;
5795;SDS011;2924;51.458;7.046;2022-08-19T08:09:26;36.20;;;28.40;;
5795;SDS011;2924;51.458;7.046;2022-08-19T08:11:56;34.90;;;29.93;;
5795;SDS011;2924;51.458;7.046;2022-08-19T08:14:28;40.70;;;31.20;;
5795;SDS011;2924;51.458;7.046;2022-08-19T08:16:58;41.50;;;32.90;;
5795;SDS011;2924;51.458;7.046;2022-08-19T08:19:24;43.83;;;34.30;;
5795;SDS011;2924;51.458;7.046;2022-08-19T08:21:53;43.87;;;32.87;;
5795;SDS011;2924;51.458;7.046;2022-08-19T08:24:20;39.33;;;31.63;;
5795;SDS011;2924;51.458;7.046;2022-08-19T08:26:46;37.97;;;31.20;;
5795;SDS011;2924;51.458;7.046;2022-08-19T08:29:12;41.03;;;34.57;;
5795;SDS011;2924;51.458;7.046;2022-08-19T08:31:40;47.10;;;35.30;;
5795;SDS011;2924;51.458;7.046;2022-08-19T08:34:08;35.70;;;25.33;;
5795;SDS011;2924;51.458;7.046;2022-08-19T08:36:36;36.50;;;29.27;;
5795;SDS011;2924;51.458;7.046;2022-08-19T08:39:15;36.17;;;28.77;;
5795;SDS011;2924;51.458;7.046;2022-08-19T08:41:48;32.50;;;29.05;;
5795;SDS011;2924;51.458;7.046;2022-08-19T08:47:12;31.95;;;25.63;;
5795;SDS011;2924;51.458;7.046;2022-08-19T08:49:53;30.10;;;26.17;;
5795;SDS011;2924;51.458;7.046;2022-08-19T08:52:25;29.73;;;21.40;;
5795;SDS011;2924;51.458;7.046;2022-08-19T08:55:03;28.40;;;24.67;;
5795;SDS011;2924;51.458;7.046;2022-08-19T08:57:35;22.13;;;19.38;;
5795;SDS011;2924;51.458;7.046;2022-08-19T09:00:08;26.85;;;19.02;;
5795;SDS011;2924;51.458;7.046;2022-08-19T09:02:37;20.58;;;17.88;;
5795;SDS011;2924;51.458;7.046;2022-08-19T09:05:03;26.17;;;21.65;;
5795;SDS011;2924;51.458;7.046;2022-08-19T09:10:36;23.30;;;19.83;;
5795;SDS011;2924;51.458;7.046;2022-08-19T09:15:58;26.55;;;22.52;;
5795;SDS011;2924;51.458;7.046;2022-08-19T09:18:38;24.27;;;21.67;;
5795;SDS011;2924;51.458;7.046;2022-08-19T09:21:18;22.95;;;20.08;;
5795;SDS011;2924;51.458;7.046;2022-08-19T09:23:45;26.80;;;20.45;;
5795;SDS011;2924;51.458;7.046;2022-08-19T09:26:13;21.92;;;18.95;;
5795;SDS011;2924;51.458;7.046;2022-08-19T09:28:41;23.60;;;19.35;;
5795;SDS011;2924;51.458;7.046;2022-08-19T09:31:11;19.13;;;17.13;;
5795;SDS011;2924;51.458;7.046;2022-08-19T09:33:39;22.98;;;18.60;;
5795;SDS011;2924;51.458;7.046;2022-08-19T09:36:08;27.10;;;16.58;;
5795;SDS011;2924;51.458;7.046;2022-08-19T09:38:37;20.85;;;16.02;;
5795;SDS011;2924;51.458;7.046;2022-08-19T09:41:11;20.92;;;15.88;;
5795;SDS011;2924;51.458;7.046;2022-08-19T09:43:39;25.10;;;15.52;;
5795;SDS011;2924;51.458;7.046;2022-08-19T09:46:07;20.85;;;14.90;;
5795;SDS011;2924;51.458;7.046;2022-08-19T09:48:34;20.85;;;14.63;;
5795;SDS011;2924;51.458;7.046;2022-08-19T09:53:31;17.48;;;13.75;;
5795;SDS011;2924;51.458;7.046;2022-08-19T09:55:57;23.25;;;13.77;;
5795;SDS011;2924;51.458;7.046;2022-08-19T09:58:22;14.18;;;12.02;;
5795;SDS011;2924;51.458;7.046;2022-08-19T10:00:52;18.80;;;12.35;;
5795;SDS011;2924;51.458;7.046;2022-08-19T10:03:19;14.38;;;12.75;;
5795;SDS011;2924;51.458;7.046;2022-08-19T10:05:45;19.00;;;15.82;;
5795;SDS011;2924;51.458;7.046;2022-08-19T10:08:14;15.70;;;13.30;;
5795;SDS011;2924;51.458;7.046;2022-08-19T10:10:51;14.45;;;12.95;;
5795;SDS011;2924;51.458;7.046;2022-08-19T10:13:19;23.55;;;16.80;;
5795;SDS011;2924;51.458;7.046;2022-08-19T10:15:50;16.67;;;14.98;;
5795;SDS011;2924;51.458;7.046;2022-08-19T10:18:18;16.83;;;14.98;;
5795;SDS011;2924;51.458;7.046;2022-08-19T10:20:46;18.30;;;13.73;;
5795;SDS011;2924;51.458;7.046;2022-08-19T10:23:13;20.13;;;12.73;;
5795;SDS011;2924;51.458;7.046;2022-08-19T10:25:40;13.63;;;11.27;;
5795;SDS011;2924;51.458;7.046;2022-08-19T10:28:06;18.65;;;16.50;;
5795;SDS011;2924;51.458;7.046;2022-08-19T10:30:33;19.25;;;16.55;;
5795;SDS011;2924;51.458;7.046;2022-08-19T10:33:00;15.30;;;13.70;;
5795;SDS011;2924;51.458;7.046;2022-08-19T10:35:26;14.05;;;12.60;;
5795;SDS011;2924;51.458;7.046;2022-08-19T10:37:54;21.83;;;18.90;;
5795;SDS011;2924;51.458;7.046;2022-08-19T10:40:24;14.20;;;12.75;;
5795;SDS011;2924;51.458;7.046;2022-08-19T10:42:52;21.63;;;18.83;;
5795;SDS011;2924;51.458;7.046;2022-08-19T10:45:18;23.40;;;19.13;;
5795;SDS011;2924;51.458;7.046;2022-08-19T10:47:47;22.42;;;19.98;;
5795;SDS011;2924;51.458;7.046;2022-08-19T10:50:13;20.02;;;18.02;;
5795;SDS011;2924;51.458;7.046;2022-08-19T10:52:57;19.92;;;17.80;;
5795;SDS011;2924;51.458;7.046;2022-08-19T10:55:28;22.27;;;19.52;;
5795;SDS011;2924;51.458;7.046;2022-08-19T10:58:12;22.70;;;19.95;;
5795;SDS011;2924;51.458;7.046;2022-08-19T11:00:40;21.73;;;19.45;;
5795;SDS011;2924;51.458;7.046;2022-08-19T11:03:07;19.55;;;17.58;;
5795;SDS011;2924;51.458;7.046;2022-08-19T11:05:33;15.75;;;13.77;;
5795;SDS011;2924;51.458;7.046;2022-08-19T11:07:59;22.92;;;15.13;;
5795;SDS011;2924;51.458;7.046;2022-08-19T11:10:24;15.77;;;12.32;;
5795;SDS011;2924;51.458;7.046;2022-08-19T11:12:50;25.30;;;15.48;;
5795;SDS011;2924;51.458;7.046;2022-08-19T11:15:19;20.98;;;16.15;;
5795;SDS011;2924;51.458;7.046;2022-08-19T11:17:45;14.38;;;12.02;;
5795;SDS011;2924;51.458;7.046;2022-08-19T11:20:12;17.37;;;15.00;;
5795;SDS011;2924;51.458;7.046;2022-08-19T11:22:39;14.85;;;13.35;;
5795;SDS011;2924;51.458;7.046;2022-08-19T11:25:06;14.48;;;12.25;;
5795;SDS011;2924;51.458;7.046;2022-08-19T11:27:32;15.50;;;13.80;;
5795;SDS011;2924;51.458;7.046;2022-08-19T11:29:58;21.20;;;13.02;;
5795;SDS011;2924;51.458;7.046;2022-08-19T11:32:25;15.88;;;11.90;;
5795;SDS011;2924;51.458;7.046;2022-08-19T11:34:52;12.05;;;10.95;;
5795;SDS011;2924;51.458;7.046;2022-08-19T11:37:18;17.50;;;12.38;;
5795;SDS011;2924;51.458;7.046;2022-08-19T11:39:43;12.77;;;11.63;;
5795;SDS011;2924;51.458;7.046;2022-08-19T11:42:09;16.23;;;11.27;;
5795;SDS011;2924;51.458;7.046;2022-08-19T11:44:53;14.02;;;12.55;;
5795;SDS011;2924;51.458;7.046;2022-08-19T11:47:19;17.90;;;13.57;;
5795;SDS011;2924;51.458;7.046;2022-08-19T11:49:46;12.48;;;11.27;;
5795;SDS011;2924;51.458;7.046;2022-08-19T11:52:12;11.60;;;9.98;;
5795;SDS011;2924;51.458;7.046;2022-08-19T11:54:38;21.25;;;12.05;;
5795;SDS011;2924;51.458;7.046;2022-08-19T11:57:04;14.40;;;11.35;;
5795;SDS011;2924;51.458;7.046;2022-08-19T11:59:30;10.68;;;9.57;;
5795;SDS011;2924;51.458;7.046;2022-08-19T12:01:55;13.75;;;11.00;;
5795;SDS011;2924;51.458;7.046;2022-08-19T12:04:22;10.82;;;8.60;;
5795;SDS011;2924;51.458;7.046;2022-08-19T12:06:48;11.57;;;9.88;;
5795;SDS011;2924;51.458;7.046;2022-08-19T12:09:15;9.18;;;7.60;;
5795;SDS011;2924;51.458;7.046;2022-08-19T12:11:42;9.90;;;8.45;;
5795;SDS011;2924;51.458;7.046;2022-08-19T12:14:11;14.63;;;7.20;;
5795;SDS011;2924;51.458;7.046;2022-08-19T12:16:38;22.80;;;10.77;;
5795;SDS011;2924;51.458;7.046;2022-08-19T12:19:06;16.45;;;9.65;;
5795;SDS011;2924;51.458;7.046;2022-08-19T12:21:33;8.38;;;7.10;;
5795;SDS011;2924;51.458;7.046;2022-08-19T12:24:00;12.50;;;8.93;;
5795;SDS011;2924;51.458;7.046;2022-08-19T12:26:29;8.43;;;7.32;;
5795;SDS011;2924;51.458;7.046;2022-08-19T12:28:56;7.43;;;6.68;;
5795;SDS011;2924;51.458;7.046;2022-08-19T12:31:24;9.38;;;7.80;;
5795;SDS011;2924;51.458;7.046;2022-08-19T12:33:50;9.05;;;7.40;;
5795;SDS011;2924;51.458;7.046;2022-08-19T12:36:17;9.85;;;8.82;;
5795;SDS011;2924;51.458;7.046;2022-08-19T12:38:43;9.48;;;7.20;;
5795;SDS011;2924;51.458;7.046;2022-08-19T12:41:12;9.50;;;5.60;;
5795;SDS011;2924;51.458;7.046;2022-08-19T12:43:40;7.38;;;6.68;;
5795;SDS011;2924;51.458;7.046;2022-08-19T12:46:07;8.30;;;6.05;;
5795;SDS011;2924;51.458;7.046;2022-08-19T12:48:33;7.68;;;5.82;;
5795;SDS011;2924;51.458;7.046;2022-08-19T12:50:59;11.52;;;7.45;;
5795;SDS011;2924;51.458;7.046;2022-08-19T12:53:30;8.13;;;5.60;;
5795;SDS011;2924;51.458;7.046;2022-08-19T12:55:56;6.20;;;5.57;;
5795;SDS011;2924;51.458;7.046;2022-08-19T12:58:24;8.20;;;5.97;;
5795;SDS011;2924;51.458;7.046;2022-08-19T13:00:51;6.60;;;5.90;;
5795;SDS011;2924;51.458;7.046;2022-08-19T13:03:16;8.25;;;5.13;;
5795;SDS011;2924;51.458;7.046;2022-08-19T13:05:42;6.28;;;5.10;;
5795;SDS011;2924;51.458;7.046;2022-08-19T13:08:08;4.90;;;4.47;;
5795;SDS011;2924;51.458;7.046;2022-08-19T13:10:34;5.72;;;5.22;;
5795;SDS011;2924;51.458;7.046;2022-08-19T13:13:02;6.35;;;4.47;;
5795;SDS011;2924;51.458;7.046;2022-08-19T13:15:32;6.35;;;5.43;;
5795;SDS011;2924;51.458;7.046;2022-08-19T13:17:59;5.07;;;3.88;;
5795;SDS011;2924;51.458;7.046;2022-08-19T13:20:25;4.90;;;4.50;;
5795;SDS011;2924;51.458;7.046;2022-08-19T13:22:51;4.82;;;4.43;;
5795;SDS011;2924;51.458;7.046;2022-08-19T13:25:17;6.95;;;4.07;;
5795;SDS011;2924;51.458;7.046;2022-08-19T13:27:44;5.63;;;5.07;;
5795;SDS011;2924;51.458;7.046;2022-08-19T13:30:11;7.93;;;5.55;;
5795;SDS011;2924;51.458;7.046;2022-08-19T13:32:57;7.45;;;4.32;;
5795;SDS011;2924;51.458;7.046;2022-08-19T13:38:21;6.07;;;5.40;;
5795;SDS011;2924;51.458;7.046;2022-08-19T13:40:47;5.28;;;4.43;;
5795;SDS011;2924;51.458;7.046;2022-08-19T13:43:15;5.07;;;4.63;;
5795;SDS011;2924;51.458;7.046;2022-08-19T13:45:42;4.55;;;4.13;;
5795;SDS011;2924;51.458;7.046;2022-08-19T13:48:08;7.63;;;5.05;;
5795;SDS011;2924;51.458;7.046;2022-08-19T13:50:35;5.93;;;4.32;;
5795;SDS011;2924;51.458;7.046;2022-08-19T13:53:05;4.70;;;4.20;;
5795;SDS011;2924;51.458;7.046;2022-08-19T13:55:31;5.45;;;4.60;;
5795;SDS011;2924;51.458;7.046;2022-08-19T13:57:58;6.82;;;4.75;;
5795;SDS011;2924;51.458;7.046;2022-08-19T14:00:30;5.97;;;4.38;;
5795;SDS011;2924;51.458;7.046;2022-08-19T14:02:58;5.43;;;4.57;;
5795;SDS011;2924;51.458;7.046;2022-08-19T14:05:24;6.10;;;4.57;;
5795;SDS011;2924;51.458;7.046;2022-08-19T14:07:51;4.00;;;3.60;;
5795;SDS011;2924;51.458;7.046;2022-08-19T14:10:17;8.85;;;3.97;;
5795;SDS011;2924;51.458;7.046;2022-08-19T14:12:44;5.10;;;3.40;;
5795;SDS011;2924;51.458;7.046;2022-08-19T14:15:11;5.55;;;3.55;;
5795;SDS011;2924;51.458;7.046;2022-08-19T14:17:38;8.23;;;3.80;;
5795;SDS011;2924;51.458;7.046;2022-08-19T14:20:09;5.47;;;3.60;;
5795;SDS011;2924;51.458;7.046;2022-08-19T14:22:36;4.15;;;3.25;;
5795;SDS011;2924;51.458;7.046;2022-08-19T14:25:04;8.00;;;4.68;;
5795;SDS011;2924;51.458;7.046;2022-08-19T14:27:35;14.30;;;4.43;;
5795;SDS011;2924;51.458;7.046;2022-08-19T14:30:02;4.55;;;3.65;;
5795;SDS011;2924;51.458;7.046;2022-08-19T14:32:29;6.05;;;4.45;;
5795;SDS011;2924;51.458;7.046;2022-08-19T14:34:55;4.43;;;3.95;;
5795;SDS011;2924;51.458;7.046;2022-08-19T14:37:21;7.68;;;4.93;;
5795;SDS011;2924;51.458;7.046;2022-08-19T14:39:47;6.18;;;4.10;;
5795;SDS011;2924;51.458;7.046;2022-08-19T14:42:13;6.32;;;4.68;;
5795;SDS011;2924;51.458;7.046;2022-08-19T14:44:40;11.60;;;5.30;;
5795;SDS011;2924;51.458;7.046;2022-08-19T14:47:06;6.97;;;4.70;;
5795;SDS011;2924;51.458;7.046;2022-08-19T14:49:33;8.35;;;4.50;;
5795;SDS011;2924;51.458;7.046;2022-08-19T14:52:00;4.28;;;3.88;;
5795;SDS011;2924;51.458;7.046;2022-08-19T14:54:26;7.97;;;4.28;;
5795;SDS011;2924;51.458;7.046;2022-08-19T14:56:52;14.95;;;3.92;;
5795;SDS011;2924;51.458;7.046;2022-08-19T14:59:17;5.13;;;4.47;;
5795;SDS011;2924;51.458;7.046;2022-08-19T15:01:44;7.47;;;4.60;;
5795;SDS011;2924;51.458;7.046;2022-08-19T15:04:09;10.95;;;5.95;;
5795;SDS011;2924;51.458;7.046;2022-08-19T15:06:35;6.38;;;5.75;;
5795;SDS011;2924;51.458;7.046;2022-08-19T15:09:02;7.53;;;5.00;;
5795;SDS011;2924;51.458;7.046;2022-08-19T15:11:29;9.93;;;5.85;;
5795;SDS011;2924;51.458;7.046;2022-08-19T15:13:58;8.88;;;5.80;;
5795;SDS011;2924;51.458;7.046;2022-08-19T15:16:24;8.40;;;7.55;;